sensor_id;sensor_type;location;lat;lon;timestamp;P1;durP1;ratioP1;P2;durP2;ratioP2
78004;SDS011;67209;51.698;-0.292;2023-04-03T00:01:58;4.68;;;1.25;;
78004;SDS011;67209;51.698;-0.292;2023-04-03T00:04:23;6.28;;;1.10;;
78004;SDS011;67209;51.698;-0.292;2023-04-03T00:06:50;4.00;;;1.42;;
78004;SDS011;67209;51.698;-0.292;2023-04-03T00:09:16;4.80;;;1.15;;
78004;SDS011;67209;51.698;-0.292;2023-04-03T00:11:42;4.40;;;1.40;;
78004;SDS011;67209;51.698;-0.292;2023-04-03T00:14:08;4.75;;;1.17;;
78004;SDS011;67209;51.698;-0.292;2023-04-03T00:16:34;5.55;;;1.45;;
78004;SDS011;67209;51.698;-0.292;2023-04-03T00:19:00;8.88;;;2.05;;
78004;SDS011;67209;51.698;-0.292;2023-04-03T00:21:26;4.40;;;1.38;;
78004;SDS011;67209;51.698;-0.292;2023-04-03T00:23:52;2.15;;;1.27;;
78004;SDS011;67209;51.698;-0.292;2023-04-03T00:26:18;4.70;;;1.45;;
78004;SDS011;67209;51.698;-0.292;2023-04-03T00:28:45;5.97;;;1.45;;
78004;SDS011;67209;51.698;-0.292;2023-04-03T00:31:13;5.22;;;1.17;;
78004;SDS011;67209;51.698;-0.292;2023-04-03T00:33:40;4.05;;;1.23;;
78004;SDS011;67209;51.698;-0.292;2023-04-03T00:36:07;2.47;;;1.30;;
78004;SDS011;67209;51.698;-0.292;2023-04-03T00:38:33;5.28;;;1.23;;
78004;SDS011;67209;51.698;-0.292;2023-04-03T00:40:59;3.92;;;1.52;;
78004;SDS011;67209;51.698;-0.292;2023-04-03T00:43:25;4.57;;;1.25;;
78004;SDS011;67209;51.698;-0.292;2023-04-03T00:45:52;4.18;;;1.63;;
78004;SDS011;67209;51.698;-0.292;2023-04-03T00:50:48;2.95;;;1.40;;
78004;SDS011;67209;51.698;-0.292;2023-04-03T00:53:16;4.55;;;1.38;;
78004;SDS011;67209;51.698;-0.292;2023-04-03T00:55:43;6.57;;;1.67;;
78004;SDS011;67209;51.698;-0.292;2023-04-03T00:58:09;4.97;;;1.30;;
78004;SDS011;67209;51.698;-0.292;2023-04-03T01:00:37;4.82;;;1.10;;
78004;SDS011;67209;51.698;-0.292;2023-04-03T01:03:04;5.15;;;1.55;;
78004;SDS011;67209;51.698;-0.292;2023-04-03T01:05:30;6.10;;;1.58;;
78004;SDS011;67209;51.698;-0.292;2023-04-03T01:07:56;5.13;;;1.33;;
78004;SDS011;67209;51.698;-0.292;2023-04-03T01:10:22;4.93;;;1.83;;
78004;SDS011;67209;51.698;-0.292;2023-04-03T01:12:50;6.65;;;1.20;;
78004;SDS011;67209;51.698;-0.292;2023-04-03T01:15:21;4.57;;;1.30;;
78004;SDS011;67209;51.698;-0.292;2023-04-03T01:17:51;4.82;;;1.30;;
78004;SDS011;67209;51.698;-0.292;2023-04-03T01:25:36;6.50;;;1.70;;
78004;SDS011;67209;51.698;-0.292;2023-04-03T01:28:06;4.80;;;1.17;;
78004;SDS011;67209;51.698;-0.292;2023-04-03T01:30:38;5.13;;;1.45;;
78004;SDS011;67209;51.698;-0.292;2023-04-03T01:33:07;4.32;;;1.15;;
78004;SDS011;67209;51.698;-0.292;2023-04-03T01:35:32;8.65;;;1.38;;
78004;SDS011;67209;51.698;-0.292;2023-04-03T01:37:58;3.05;;;1.20;;
78004;SDS011;67209;51.698;-0.292;2023-04-03T01:40:25;2.50;;;1.50;;
78004;SDS011;67209;51.698;-0.292;2023-04-03T01:42:51;5.68;;;1.67;;
78004;SDS011;67209;51.698;-0.292;2023-04-03T01:45:17;6.53;;;1.10;;
78004;SDS011;67209;51.698;-0.292;2023-04-03T01:47:43;4.10;;;1.17;;
78004;SDS011;67209;51.698;-0.292;2023-04-03T01:50:09;3.65;;;1.33;;
78004;SDS011;67209;51.698;-0.292;2023-04-03T01:52:35;4.85;;;1.23;;
78004;SDS011;67209;51.698;-0.292;2023-04-03T01:55:01;7.65;;;1.73;;
78004;SDS011;67209;51.698;-0.292;2023-04-03T01:57:27;7.43;;;1.15;;
78004;SDS011;67209;51.698;-0.292;2023-04-03T01:59:53;5.28;;;1.50;;
78004;SDS011;67209;51.698;-0.292;2023-04-03T02:02:19;4.60;;;1.35;;
78004;SDS011;67209;51.698;-0.292;2023-04-03T02:04:45;4.50;;;1.30;;
78004;SDS011;67209;51.698;-0.292;2023-04-03T02:07:11;3.90;;;1.40;;
78004;SDS011;67209;51.698;-0.292;2023-04-03T02:09:37;10.75;;;2.22;;
78004;SDS011;67209;51.698;-0.292;2023-04-03T02:12:03;5.78;;;1.00;;
78004;SDS011;67209;51.698;-0.292;2023-04-03T02:14:29;2.40;;;1.02;;
78004;SDS011;67209;51.698;-0.292;2023-04-03T02:16:55;5.93;;;1.40;;
78004;SDS011;67209;51.698;-0.292;2023-04-03T02:19:21;5.80;;;1.60;;
78004;SDS011;67209;51.698;-0.292;2023-04-03T02:21:47;3.78;;;1.20;;
78004;SDS011;67209;51.698;-0.292;2023-04-03T02:24:13;4.60;;;1.45;;
78004;SDS011;67209;51.698;-0.292;2023-04-03T02:26:39;3.42;;;1.30;;
78004;SDS011;67209;51.698;-0.292;2023-04-03T02:29:05;7.20;;;1.33;;
78004;SDS011;67209;51.698;-0.292;2023-04-03T02:31:31;3.90;;;1.60;;
78004;SDS011;67209;51.698;-0.292;2023-04-03T02:33:57;6.47;;;1.17;;
78004;SDS011;67209;51.698;-0.292;2023-04-03T02:36:23;5.22;;;1.15;;
78004;SDS011;67209;51.698;-0.292;2023-04-03T02:38:49;3.75;;;1.00;;
78004;SDS011;67209;51.698;-0.292;2023-04-03T02:41:15;3.50;;;1.30;;
78004;SDS011;67209;51.698;-0.292;2023-04-03T02:43:41;8.80;;;1.52;;
78004;SDS011;67209;51.698;-0.292;2023-04-03T02:46:07;6.05;;;1.20;;
78004;SDS011;67209;51.698;-0.292;2023-04-03T02:48:34;4.47;;;1.23;;
78004;SDS011;67209;51.698;-0.292;2023-04-03T02:51:00;2.45;;;1.00;;
78004;SDS011;67209;51.698;-0.292;2023-04-03T02:53:26;5.18;;;1.25;;
78004;SDS011;67209;51.698;-0.292;2023-04-03T02:55:52;6.38;;;1.38;;
78004;SDS011;67209;51.698;-0.292;2023-04-03T02:58:18;3.63;;;1.55;;
78004;SDS011;67209;51.698;-0.292;2023-04-03T03:00:44;7.60;;;2.42;;
78004;SDS011;67209;51.698;-0.292;2023-04-03T03:03:10;4.15;;;1.48;;
78004;SDS011;67209;51.698;-0.292;2023-04-03T03:05:36;3.58;;;1.42;;
78004;SDS011;67209;51.698;-0.292;2023-04-03T03:08:02;7.07;;;1.38;;
78004;SDS011;67209;51.698;-0.292;2023-04-03T03:10:28;7.03;;;1.45;;
78004;SDS011;67209;51.698;-0.292;2023-04-03T03:12:54;4.90;;;1.35;;
78004;SDS011;67209;51.698;-0.292;2023-04-03T03:15:20;3.15;;;1.13;;
78004;SDS011;67209;51.698;-0.292;2023-04-03T03:17:46;7.38;;;1.75;;
78004;SDS011;67209;51.698;-0.292;2023-04-03T03:20:12;3.83;;;1.70;;
78004;SDS011;67209;51.698;-0.292;2023-04-03T03:22:41;4.30;;;2.03;;
78004;SDS011;67209;51.698;-0.292;2023-04-03T03:25:07;2.53;;;1.27;;
78004;SDS011;67209;51.698;-0.292;2023-04-03T03:27:33;7.28;;;1.30;;
78004;SDS011;67209;51.698;-0.292;2023-04-03T03:30:00;7.00;;;1.83;;
78004;SDS011;67209;51.698;-0.292;2023-04-03T03:32:26;4.18;;;1.40;;
78004;SDS011;67209;51.698;-0.292;2023-04-03T03:34:52;3.58;;;1.70;;
78004;SDS011;67209;51.698;-0.292;2023-04-03T03:37:18;5.53;;;1.10;;
78004;SDS011;67209;51.698;-0.292;2023-04-03T03:39:44;3.60;;;1.40;;
78004;SDS011;67209;51.698;-0.292;2023-04-03T03:42:10;4.10;;;1.63;;
78004;SDS011;67209;51.698;-0.292;2023-04-03T03:44:36;3.50;;;1.23;;
78004;SDS011;67209;51.698;-0.292;2023-04-03T03:47:02;4.18;;;1.23;;
78004;SDS011;67209;51.698;-0.292;2023-04-03T03:49:28;7.05;;;1.38;;
78004;SDS011;67209;51.698;-0.292;2023-04-03T03:51:54;2.10;;;1.00;;
78004;SDS011;67209;51.698;-0.292;2023-04-03T03:54:20;4.57;;;1.40;;
78004;SDS011;67209;51.698;-0.292;2023-04-03T03:56:46;6.28;;;1.25;;
78004;SDS011;67209;51.698;-0.292;2023-04-03T03:59:12;5.03;;;1.52;;
78004;SDS011;67209;51.698;-0.292;2023-04-03T04:01:38;3.15;;;1.40;;
78004;SDS011;67209;51.698;-0.292;2023-04-03T04:04:04;5.45;;;1.77;;
78004;SDS011;67209;51.698;-0.292;2023-04-03T04:06:30;3.65;;;1.10;;
78004;SDS011;67209;51.698;-0.292;2023-04-03T04:08:56;4.22;;;1.45;;
78004;SDS011;67209;51.698;-0.292;2023-04-03T04:11:22;5.15;;;1.60;;
78004;SDS011;67209;51.698;-0.292;2023-04-03T04:13:48;8.38;;;1.70;;
78004;SDS011;67209;51.698;-0.292;2023-04-03T04:16:14;2.85;;;1.50;;
78004;SDS011;67209;51.698;-0.292;2023-04-03T04:18:40;4.43;;;1.42;;
78004;SDS011;67209;51.698;-0.292;2023-04-03T04:21:06;5.45;;;1.98;;
78004;SDS011;67209;51.698;-0.292;2023-04-03T04:23:32;5.68;;;1.92;;
78004;SDS011;67209;51.698;-0.292;2023-04-03T04:25:58;7.90;;;1.90;;
78004;SDS011;67209;51.698;-0.292;2023-04-03T04:28:24;9.63;;;2.50;;
78004;SDS011;67209;51.698;-0.292;2023-04-03T04:30:50;5.90;;;1.80;;
78004;SDS011;67209;51.698;-0.292;2023-04-03T04:33:16;3.42;;;1.48;;
78004;SDS011;67209;51.698;-0.292;2023-04-03T04:35:42;3.80;;;1.42;;
78004;SDS011;67209;51.698;-0.292;2023-04-03T04:38:08;8.88;;;2.13;;
78004;SDS011;67209;51.698;-0.292;2023-04-03T04:40:35;5.57;;;1.58;;
78004;SDS011;67209;51.698;-0.292;2023-04-03T04:43:02;4.85;;;2.13;;
78004;SDS011;67209;51.698;-0.292;2023-04-03T04:45:28;5.18;;;1.63;;
78004;SDS011;67209;51.698;-0.292;2023-04-03T04:47:55;6.68;;;2.00;;
78004;SDS011;67209;51.698;-0.292;2023-04-03T04:50:21;4.65;;;1.50;;
78004;SDS011;67209;51.698;-0.292;2023-04-03T04:52:47;6.18;;;1.60;;
78004;SDS011;67209;51.698;-0.292;2023-04-03T04:55:13;6.60;;;2.20;;
78004;SDS011;67209;51.698;-0.292;2023-04-03T04:57:40;6.57;;;1.90;;
78004;SDS011;67209;51.698;-0.292;2023-04-03T05:00:06;5.60;;;1.67;;
78004;SDS011;67209;51.698;-0.292;2023-04-03T05:02:32;3.90;;;1.67;;
78004;SDS011;67209;51.698;-0.292;2023-04-03T05:04:58;6.75;;;1.67;;
78004;SDS011;67209;51.698;-0.292;2023-04-03T05:07:24;6.65;;;1.70;;
78004;SDS011;67209;51.698;-0.292;2023-04-03T05:09:50;3.88;;;1.48;;
78004;SDS011;67209;51.698;-0.292;2023-04-03T05:12:16;7.35;;;1.73;;
78004;SDS011;67209;51.698;-0.292;2023-04-03T05:14:42;3.25;;;1.50;;
78004;SDS011;67209;51.698;-0.292;2023-04-03T05:17:08;4.45;;;1.67;;
78004;SDS011;67209;51.698;-0.292;2023-04-03T05:19:34;6.82;;;1.45;;
78004;SDS011;67209;51.698;-0.292;2023-04-03T05:22:00;7.55;;;2.45;;
78004;SDS011;67209;51.698;-0.292;2023-04-03T05:24:27;9.20;;;1.98;;
78004;SDS011;67209;51.698;-0.292;2023-04-03T05:26:53;5.07;;;1.80;;
78004;SDS011;67209;51.698;-0.292;2023-04-03T05:29:20;4.82;;;1.60;;
78004;SDS011;67209;51.698;-0.292;2023-04-03T05:31:46;4.57;;;1.70;;
78004;SDS011;67209;51.698;-0.292;2023-04-03T05:34:14;8.75;;;1.77;;
78004;SDS011;67209;51.698;-0.292;2023-04-03T05:36:40;5.53;;;2.20;;
78004;SDS011;67209;51.698;-0.292;2023-04-03T05:39:06;6.55;;;1.95;;
78004;SDS011;67209;51.698;-0.292;2023-04-03T05:41:32;5.30;;;1.50;;
78004;SDS011;67209;51.698;-0.292;2023-04-03T05:43:58;5.03;;;1.80;;
78004;SDS011;67209;51.698;-0.292;2023-04-03T05:46:24;7.68;;;2.00;;
78004;SDS011;67209;51.698;-0.292;2023-04-03T05:48:50;5.22;;;1.70;;
78004;SDS011;67209;51.698;-0.292;2023-04-03T05:51:17;4.97;;;1.73;;
78004;SDS011;67209;51.698;-0.292;2023-04-03T05:53:44;6.68;;;1.73;;
78004;SDS011;67209;51.698;-0.292;2023-04-03T05:56:11;4.45;;;1.40;;
78004;SDS011;67209;51.698;-0.292;2023-04-03T05:58:37;6.80;;;1.70;;
78004;SDS011;67209;51.698;-0.292;2023-04-03T06:01:03;7.95;;;2.17;;
78004;SDS011;67209;51.698;-0.292;2023-04-03T06:03:30;5.80;;;1.67;;
78004;SDS011;67209;51.698;-0.292;2023-04-03T06:05:56;6.82;;;1.85;;
78004;SDS011;67209;51.698;-0.292;2023-04-03T06:08:22;5.50;;;2.10;;
78004;SDS011;67209;51.698;-0.292;2023-04-03T06:10:49;4.18;;;1.75;;
78004;SDS011;67209;51.698;-0.292;2023-04-03T06:13:16;7.00;;;1.83;;
78004;SDS011;67209;51.698;-0.292;2023-04-03T06:15:42;5.80;;;1.77;;
78004;SDS011;67209;51.698;-0.292;2023-04-03T06:18:09;4.72;;;1.77;;
78004;SDS011;67209;51.698;-0.292;2023-04-03T06:20:35;6.72;;;2.38;;
78004;SDS011;67209;51.698;-0.292;2023-04-03T06:23:01;4.53;;;1.90;;
78004;SDS011;67209;51.698;-0.292;2023-04-03T06:25:27;8.48;;;1.83;;
78004;SDS011;67209;51.698;-0.292;2023-04-03T06:27:53;5.10;;;1.75;;
78004;SDS011;67209;51.698;-0.292;2023-04-03T06:30:20;4.13;;;2.00;;
78004;SDS011;67209;51.698;-0.292;2023-04-03T06:32:47;4.57;;;1.98;;
78004;SDS011;67209;51.698;-0.292;2023-04-03T06:35:13;7.15;;;1.98;;
78004;SDS011;67209;51.698;-0.292;2023-04-03T06:37:39;4.43;;;2.22;;
78004;SDS011;67209;51.698;-0.292;2023-04-03T06:40:05;5.28;;;2.22;;
78004;SDS011;67209;51.698;-0.292;2023-04-03T06:42:32;7.40;;;2.13;;
78004;SDS011;67209;51.698;-0.292;2023-04-03T06:44:58;8.05;;;2.10;;
78004;SDS011;67209;51.698;-0.292;2023-04-03T06:47:24;8.23;;;2.00;;
78004;SDS011;67209;51.698;-0.292;2023-04-03T06:49:50;4.43;;;2.13;;
78004;SDS011;67209;51.698;-0.292;2023-04-03T06:52:16;5.88;;;1.95;;
78004;SDS011;67209;51.698;-0.292;2023-04-03T06:54:42;5.55;;;2.42;;
78004;SDS011;67209;51.698;-0.292;2023-04-03T06:57:08;3.92;;;1.70;;
78004;SDS011;67209;51.698;-0.292;2023-04-03T06:59:34;6.10;;;2.47;;
78004;SDS011;67209;51.698;-0.292;2023-04-03T07:02:01;6.47;;;2.13;;
78004;SDS011;67209;51.698;-0.292;2023-04-03T07:04:27;9.38;;;2.63;;
78004;SDS011;67209;51.698;-0.292;2023-04-03T07:06:53;8.13;;;1.73;;
78004;SDS011;67209;51.698;-0.292;2023-04-03T07:09:19;6.07;;;2.10;;
78004;SDS011;67209;51.698;-0.292;2023-04-03T07:11:46;6.93;;;2.00;;
78004;SDS011;67209;51.698;-0.292;2023-04-03T07:14:12;8.00;;;1.90;;
78004;SDS011;67209;51.698;-0.292;2023-04-03T07:16:38;4.50;;;1.67;;
78004;SDS011;67209;51.698;-0.292;2023-04-03T07:19:04;6.70;;;2.30;;
78004;SDS011;67209;51.698;-0.292;2023-04-03T07:21:30;6.63;;;2.45;;
78004;SDS011;67209;51.698;-0.292;2023-04-03T07:23:56;7.30;;;2.20;;
78004;SDS011;67209;51.698;-0.292;2023-04-03T07:26:22;10.60;;;2.30;;
78004;SDS011;67209;51.698;-0.292;2023-04-03T07:28:49;8.43;;;2.03;;
78004;SDS011;67209;51.698;-0.292;2023-04-03T07:31:15;4.55;;;2.35;;
78004;SDS011;67209;51.698;-0.292;2023-04-03T07:33:42;6.07;;;2.30;;
78004;SDS011;67209;51.698;-0.292;2023-04-03T07:36:10;9.30;;;2.63;;
78004;SDS011;67209;51.698;-0.292;2023-04-03T07:38:36;6.40;;;2.45;;
78004;SDS011;67209;51.698;-0.292;2023-04-03T07:41:03;7.22;;;2.33;;
78004;SDS011;67209;51.698;-0.292;2023-04-03T07:43:29;10.18;;;2.25;;
78004;SDS011;67209;51.698;-0.292;2023-04-03T07:45:55;8.45;;;2.53;;
78004;SDS011;67209;51.698;-0.292;2023-04-03T07:48:22;8.68;;;1.95;;
78004;SDS011;67209;51.698;-0.292;2023-04-03T07:50:48;4.97;;;2.13;;
78004;SDS011;67209;51.698;-0.292;2023-04-03T07:53:14;5.47;;;2.40;;
78004;SDS011;67209;51.698;-0.292;2023-04-03T07:55:40;4.40;;;2.05;;
78004;SDS011;67209;51.698;-0.292;2023-04-03T07:58:10;8.32;;;1.77;;
78004;SDS011;67209;51.698;-0.292;2023-04-03T08:00:36;9.23;;;2.00;;
78004;SDS011;67209;51.698;-0.292;2023-04-03T08:03:03;5.97;;;1.88;;
78004;SDS011;67209;51.698;-0.292;2023-04-03T08:05:29;7.22;;;2.13;;
78004;SDS011;67209;51.698;-0.292;2023-04-03T08:07:55;4.60;;;1.67;;
78004;SDS011;67209;51.698;-0.292;2023-04-03T08:10:21;4.88;;;1.92;;
78004;SDS011;67209;51.698;-0.292;2023-04-03T08:12:47;4.88;;;1.65;;
78004;SDS011;67209;51.698;-0.292;2023-04-03T08:15:13;5.47;;;2.08;;
78004;SDS011;67209;51.698;-0.292;2023-04-03T08:17:39;3.83;;;1.52;;
78004;SDS011;67209;51.698;-0.292;2023-04-03T08:20:06;4.45;;;1.10;;
78004;SDS011;67209;51.698;-0.292;2023-04-03T08:22:33;10.23;;;1.80;;
78004;SDS011;67209;51.698;-0.292;2023-04-03T08:24:59;3.78;;;1.50;;
78004;SDS011;67209;51.698;-0.292;2023-04-03T08:27:26;6.10;;;1.77;;
78004;SDS011;67209;51.698;-0.292;2023-04-03T08:29:54;5.35;;;1.60;;
78004;SDS011;67209;51.698;-0.292;2023-04-03T08:32:20;5.47;;;2.65;;
78004;SDS011;67209;51.698;-0.292;2023-04-03T08:34:47;5.95;;;1.63;;
78004;SDS011;67209;51.698;-0.292;2023-04-03T08:37:13;4.45;;;1.63;;
78004;SDS011;67209;51.698;-0.292;2023-04-03T08:39:41;6.40;;;1.88;;
78004;SDS011;67209;51.698;-0.292;2023-04-03T08:42:33;3.95;;;1.67;;
78004;SDS011;67209;51.698;-0.292;2023-04-03T08:44:55;4.13;;;1.40;;
78004;SDS011;67209;51.698;-0.292;2023-04-03T08:47:38;5.55;;;1.42;;
78004;SDS011;67209;51.698;-0.292;2023-04-03T08:50:12;5.28;;;2.10;;
78004;SDS011;67209;51.698;-0.292;2023-04-03T08:52:41;8.10;;;1.90;;
78004;SDS011;67209;51.698;-0.292;2023-04-03T08:55:29;7.60;;;2.45;;
78004;SDS011;67209;51.698;-0.292;2023-04-03T08:58:01;3.88;;;1.77;;
78004;SDS011;67209;51.698;-0.292;2023-04-03T09:00:30;2.90;;;1.65;;
78004;SDS011;67209;51.698;-0.292;2023-04-03T09:02:57;5.05;;;2.17;;
78004;SDS011;67209;51.698;-0.292;2023-04-03T09:08:43;7.82;;;2.13;;
78004;SDS011;67209;51.698;-0.292;2023-04-03T09:10:42;10.48;;;2.75;;
78004;SDS011;67209;51.698;-0.292;2023-04-03T09:13:24;5.43;;;2.10;;
78004;SDS011;67209;51.698;-0.292;2023-04-03T09:15:52;5.88;;;2.03;;
78004;SDS011;67209;51.698;-0.292;2023-04-03T09:26:30;7.32;;;2.40;;
78004;SDS011;67209;51.698;-0.292;2023-04-03T09:28:59;8.13;;;3.13;;
78004;SDS011;67209;51.698;-0.292;2023-04-03T09:31:27;7.05;;;3.17;;
78004;SDS011;67209;51.698;-0.292;2023-04-03T09:33:56;9.90;;;2.97;;
78004;SDS011;67209;51.698;-0.292;2023-04-03T09:36:37;10.45;;;3.25;;
78004;SDS011;67209;51.698;-0.292;2023-04-03T09:39:04;10.07;;;2.83;;
78004;SDS011;67209;51.698;-0.292;2023-04-03T09:41:30;7.55;;;3.05;;
78004;SDS011;67209;51.698;-0.292;2023-04-03T09:43:59;7.53;;;2.55;;
78004;SDS011;67209;51.698;-0.292;2023-04-03T09:48:58;5.45;;;2.92;;
78004;SDS011;67209;51.698;-0.292;2023-04-03T09:51:26;5.70;;;2.33;;
78004;SDS011;67209;51.698;-0.292;2023-04-03T09:53:52;7.72;;;2.88;;
78004;SDS011;67209;51.698;-0.292;2023-04-03T09:56:20;8.98;;;2.83;;
78004;SDS011;67209;51.698;-0.292;2023-04-03T10:01:27;3.63;;;2.00;;
78004;SDS011;67209;51.698;-0.292;2023-04-03T10:06:29;5.35;;;2.90;;
78004;SDS011;67209;51.698;-0.292;2023-04-03T10:09:01;6.25;;;3.00;;
78004;SDS011;67209;51.698;-0.292;2023-04-03T10:11:30;9.15;;;2.50;;
78004;SDS011;67209;51.698;-0.292;2023-04-03T10:14:00;4.53;;;2.20;;
78004;SDS011;67209;51.698;-0.292;2023-04-03T10:26:43;6.25;;;2.75;;
78004;SDS011;67209;51.698;-0.292;2023-04-03T10:34:22;4.50;;;2.15;;
78004;SDS011;67209;51.698;-0.292;2023-04-03T10:47:21;3.88;;;1.85;;
78004;SDS011;67209;51.698;-0.292;2023-04-03T10:49:54;5.63;;;2.22;;
78004;SDS011;67209;51.698;-0.292;2023-04-03T10:52:22;4.38;;;1.63;;
78004;SDS011;67209;51.698;-0.292;2023-04-03T10:57:18;1.95;;;1.35;;
78004;SDS011;67209;51.698;-0.292;2023-04-03T10:59:52;6.03;;;1.55;;
78004;SDS011;67209;51.698;-0.292;2023-04-03T11:05:01;4.35;;;1.67;;
78004;SDS011;67209;51.698;-0.292;2023-04-03T11:09:57;3.47;;;1.27;;
78004;SDS011;67209;51.698;-0.292;2023-04-03T11:12:28;7.22;;;1.83;;
78004;SDS011;67209;51.698;-0.292;2023-04-03T11:14:59;3.65;;;1.60;;
78004;SDS011;67209;51.698;-0.292;2023-04-03T11:17:35;4.93;;;1.67;;
78004;SDS011;67209;51.698;-0.292;2023-04-03T11:22:50;3.85;;;1.63;;
78004;SDS011;67209;51.698;-0.292;2023-04-03T11:25:22;3.25;;;1.70;;
78004;SDS011;67209;51.698;-0.292;2023-04-03T11:29:54;7.40;;;2.05;;
78004;SDS011;67209;51.698;-0.292;2023-04-03T11:34:57;3.15;;;1.42;;
78004;SDS011;67209;51.698;-0.292;2023-04-03T11:40:00;4.43;;;1.90;;
78004;SDS011;67209;51.698;-0.292;2023-04-03T11:45:17;5.72;;;2.15;;
78004;SDS011;67209;51.698;-0.292;2023-04-03T12:16:05;3.72;;;1.90;;
78004;SDS011;67209;51.698;-0.292;2023-04-03T12:21:11;7.30;;;2.53;;
78004;SDS011;67209;51.698;-0.292;2023-04-03T12:26:27;3.05;;;2.10;;
78004;SDS011;67209;51.698;-0.292;2023-04-03T12:28:54;6.15;;;2.42;;
78004;SDS011;67209;51.698;-0.292;2023-04-03T12:31:22;5.03;;;1.92;;
78004;SDS011;67209;51.698;-0.292;2023-04-03T12:36:43;5.70;;;2.58;;
78004;SDS011;67209;51.698;-0.292;2023-04-03T12:39:22;4.65;;;2.10;;
78004;SDS011;67209;51.698;-0.292;2023-04-03T12:41:57;5.07;;;2.35;;
78004;SDS011;67209;51.698;-0.292;2023-04-03T12:46:04;6.13;;;2.70;;
78004;SDS011;67209;51.698;-0.292;2023-04-03T12:48:31;4.38;;;2.70;;
78004;SDS011;67209;51.698;-0.292;2023-04-03T12:50:58;4.78;;;2.40;;
78004;SDS011;67209;51.698;-0.292;2023-04-03T12:53:27;6.57;;;2.60;;
78004;SDS011;67209;51.698;-0.292;2023-04-03T12:55:56;3.30;;;2.65;;
78004;SDS011;67209;51.698;-0.292;2023-04-03T12:58:23;6.57;;;2.40;;
78004;SDS011;67209;51.698;-0.292;2023-04-03T13:03:49;4.03;;;2.55;;
78004;SDS011;67209;51.698;-0.292;2023-04-03T13:07:01;6.15;;;2.50;;
78004;SDS011;67209;51.698;-0.292;2023-04-03T13:09:02;3.90;;;1.90;;
78004;SDS011;67209;51.698;-0.292;2023-04-03T13:11:47;4.13;;;1.85;;
78004;SDS011;67209;51.698;-0.292;2023-04-03T13:14:15;2.70;;;1.83;;
78004;SDS011;67209;51.698;-0.292;2023-04-03T13:16:42;4.07;;;2.22;;
78004;SDS011;67209;51.698;-0.292;2023-04-03T13:19:15;3.80;;;1.90;;
78004;SDS011;67209;51.698;-0.292;2023-04-03T13:21:42;6.13;;;2.45;;
78004;SDS011;67209;51.698;-0.292;2023-04-03T13:24:09;3.90;;;2.25;;
78004;SDS011;67209;51.698;-0.292;2023-04-03T13:26:35;5.88;;;2.08;;
78004;SDS011;67209;51.698;-0.292;2023-04-03T13:29:03;4.65;;;2.08;;
78004;SDS011;67209;51.698;-0.292;2023-04-03T13:31:31;2.50;;;1.92;;
78004;SDS011;67209;51.698;-0.292;2023-04-03T13:34:01;2.15;;;1.38;;
78004;SDS011;67209;51.698;-0.292;2023-04-03T13:36:38;3.63;;;1.88;;
78004;SDS011;67209;51.698;-0.292;2023-04-03T13:41:37;3.83;;;1.80;;
78004;SDS011;67209;51.698;-0.292;2023-04-03T13:46:49;2.58;;;2.00;;
78004;SDS011;67209;51.698;-0.292;2023-04-03T13:49:20;2.95;;;1.85;;
78004;SDS011;67209;51.698;-0.292;2023-04-03T13:51:46;2.08;;;1.55;;
78004;SDS011;67209;51.698;-0.292;2023-04-03T13:54:17;4.18;;;2.15;;
78004;SDS011;67209;51.698;-0.292;2023-04-03T13:56:44;2.83;;;1.92;;
78004;SDS011;67209;51.698;-0.292;2023-04-03T14:01:42;3.72;;;2.30;;
78004;SDS011;67209;51.698;-0.292;2023-04-03T14:06:34;3.72;;;1.88;;
78004;SDS011;67209;51.698;-0.292;2023-04-03T14:09:00;4.65;;;2.05;;
78004;SDS011;67209;51.698;-0.292;2023-04-03T14:11:28;3.67;;;1.60;;
78004;SDS011;67209;51.698;-0.292;2023-04-03T14:13:55;5.80;;;2.15;;
78004;SDS011;67209;51.698;-0.292;2023-04-03T14:16:26;3.47;;;2.10;;
78004;SDS011;67209;51.698;-0.292;2023-04-03T14:18:52;5.45;;;2.20;;
78004;SDS011;67209;51.698;-0.292;2023-04-03T14:21:19;4.40;;;2.15;;
78004;SDS011;67209;51.698;-0.292;2023-04-03T14:23:46;4.60;;;2.05;;
78004;SDS011;67209;51.698;-0.292;2023-04-03T14:26:17;4.38;;;2.22;;
78004;SDS011;67209;51.698;-0.292;2023-04-03T14:28:44;6.38;;;2.20;;
78004;SDS011;67209;51.698;-0.292;2023-04-03T14:31:11;3.35;;;2.17;;
78004;SDS011;67209;51.698;-0.292;2023-04-03T14:33:38;3.95;;;1.98;;
78004;SDS011;67209;51.698;-0.292;2023-04-03T14:36:14;2.67;;;2.08;;
78004;SDS011;67209;51.698;-0.292;2023-04-03T14:38:41;4.40;;;1.30;;
78004;SDS011;67209;51.698;-0.292;2023-04-03T14:41:07;2.10;;;1.80;;
78004;SDS011;67209;51.698;-0.292;2023-04-03T14:43:33;3.95;;;1.95;;
78004;SDS011;67209;51.698;-0.292;2023-04-03T14:45:59;2.35;;;1.60;;
78004;SDS011;67209;51.698;-0.292;2023-04-03T14:48:26;6.47;;;2.42;;
78004;SDS011;67209;51.698;-0.292;2023-04-03T14:50:53;3.55;;;1.85;;
78004;SDS011;67209;51.698;-0.292;2023-04-03T14:53:20;2.08;;;1.42;;
78004;SDS011;67209;51.698;-0.292;2023-04-03T14:55:50;3.40;;;1.90;;
78004;SDS011;67209;51.698;-0.292;2023-04-03T14:58:18;2.35;;;1.90;;
78004;SDS011;67209;51.698;-0.292;2023-04-03T15:00:44;4.88;;;2.70;;
78004;SDS011;67209;51.698;-0.292;2023-04-03T15:03:17;1.42;;;1.27;;
78004;SDS011;67209;51.698;-0.292;2023-04-03T15:05:44;4.25;;;2.50;;
78004;SDS011;67209;51.698;-0.292;2023-04-03T15:08:44;3.15;;;1.90;;
78004;SDS011;67209;51.698;-0.292;2023-04-03T15:11:03;3.13;;;2.05;;
78004;SDS011;67209;51.698;-0.292;2023-04-03T15:13:29;3.50;;;2.10;;
78004;SDS011;67209;51.698;-0.292;2023-04-03T15:15:55;3.72;;;2.08;;
78004;SDS011;67209;51.698;-0.292;2023-04-03T15:18:22;2.83;;;1.90;;
78004;SDS011;67209;51.698;-0.292;2023-04-03T15:20:48;3.70;;;2.35;;
78004;SDS011;67209;51.698;-0.292;2023-04-03T15:23:15;2.80;;;1.83;;
78004;SDS011;67209;51.698;-0.292;2023-04-03T15:25:42;3.85;;;1.98;;
78004;SDS011;67209;51.698;-0.292;2023-04-03T15:28:09;3.28;;;1.95;;
78004;SDS011;67209;51.698;-0.292;2023-04-03T15:30:39;2.25;;;1.92;;
78004;SDS011;67209;51.698;-0.292;2023-04-03T15:33:05;4.75;;;2.08;;
78004;SDS011;67209;51.698;-0.292;2023-04-03T15:35:31;3.80;;;2.20;;
78004;SDS011;67209;51.698;-0.292;2023-04-03T15:37:57;3.38;;;2.47;;
78004;SDS011;67209;51.698;-0.292;2023-04-03T15:40:23;2.83;;;1.73;;
78004;SDS011;67209;51.698;-0.292;2023-04-03T15:42:50;4.72;;;1.90;;
78004;SDS011;67209;51.698;-0.292;2023-04-03T15:45:16;3.42;;;1.80;;
78004;SDS011;67209;51.698;-0.292;2023-04-03T15:47:42;2.20;;;1.50;;
78004;SDS011;67209;51.698;-0.292;2023-04-03T15:50:08;2.30;;;1.02;;
78004;SDS011;67209;51.698;-0.292;2023-04-03T15:52:35;3.88;;;1.58;;
78004;SDS011;67209;51.698;-0.292;2023-04-03T15:55:01;4.18;;;1.73;;
78004;SDS011;67209;51.698;-0.292;2023-04-03T15:57:27;1.70;;;1.30;;
78004;SDS011;67209;51.698;-0.292;2023-04-03T15:59:53;3.38;;;1.88;;
78004;SDS011;67209;51.698;-0.292;2023-04-03T16:02:19;2.03;;;1.40;;
78004;SDS011;67209;51.698;-0.292;2023-04-03T16:04:46;1.65;;;1.40;;
78004;SDS011;67209;51.698;-0.292;2023-04-03T16:07:12;4.88;;;1.42;;
78004;SDS011;67209;51.698;-0.292;2023-04-03T16:09:41;2.28;;;1.40;;
78004;SDS011;67209;51.698;-0.292;2023-04-03T16:12:07;3.85;;;1.33;;
78004;SDS011;67209;51.698;-0.292;2023-04-03T16:14:33;1.70;;;1.15;;
78004;SDS011;67209;51.698;-0.292;2023-04-03T16:16:59;2.40;;;1.30;;
78004;SDS011;67209;51.698;-0.292;2023-04-03T16:19:26;5.47;;;1.10;;
78004;SDS011;67209;51.698;-0.292;2023-04-03T16:21:53;1.85;;;1.00;;
78004;SDS011;67209;51.698;-0.292;2023-04-03T16:24:19;2.67;;;1.20;;
78004;SDS011;67209;51.698;-0.292;2023-04-03T16:26:46;1.75;;;1.30;;
78004;SDS011;67209;51.698;-0.292;2023-04-03T16:29:12;2.47;;;1.30;;
78004;SDS011;67209;51.698;-0.292;2023-04-03T16:31:38;3.65;;;1.60;;
78004;SDS011;67209;51.698;-0.292;2023-04-03T16:34:04;1.83;;;1.00;;
78004;SDS011;67209;51.698;-0.292;2023-04-03T16:36:33;5.28;;;1.75;;
78004;SDS011;67209;51.698;-0.292;2023-04-03T16:38:59;3.72;;;1.63;;